createdAt,value
2018-02-09T00:02:10.809Z,95449
2018-02-09T00:04:39.986Z,95450
2018-02-09T00:07:08.061Z,95437
2018-02-09T00:09:36.134Z,95440
2018-02-09T00:12:04.197Z,95441
2018-02-09T00:14:33.048Z,95462
2018-02-09T00:17:01.119Z,95451
2018-02-09T00:19:29.181Z,95447
2018-02-09T00:21:57.246Z,95447
2018-02-09T00:24:25.310Z,95451
2018-02-09T00:26:53.381Z,95446
2018-02-09T00:29:21.501Z,95453
2018-02-09T00:31:49.577Z,95440
2018-02-09T00:34:17.653Z,95436
2018-02-09T00:36:45.726Z,95443
2018-02-09T00:39:13.809Z,95447
2018-02-09T00:41:41.866Z,95435
2018-02-09T00:44:12.309Z,95428
2018-02-09T00:46:41.321Z,95450
2018-02-09T00:49:10.597Z,95445
2018-02-09T00:51:38.670Z,95441
2018-02-09T00:54:06.749Z,95450
2018-02-09T00:56:34.813Z,95436
2018-02-09T00:59:02.890Z,95452
2018-02-09T01:01:30.993Z,95442
2018-02-09T01:03:59.057Z,95442
2018-02-09T01:06:27.146Z,95433
2018-02-09T01:08:55.226Z,95438
2018-02-09T01:11:23.286Z,95446
2018-02-09T01:13:51.987Z,95429
2018-02-09T01:16:20.061Z,95429
2018-02-09T01:18:48.138Z,95435
2018-02-09T01:21:16.222Z,95433
2018-02-09T01:23:44.281Z,95424
2018-02-09T01:26:12.355Z,95432
2018-02-09T01:28:41.273Z,95429
2018-02-09T01:31:09.453Z,95432
2018-02-09T01:33:37.537Z,95428
2018-02-09T01:36:06.197Z,95417
2018-02-09T01:38:34.258Z,95412
2018-02-09T01:41:02.321Z,95423
2018-02-09T01:43:30.382Z,95426
2018-02-09T01:45:59.213Z,95432
2018-02-09T01:48:27.275Z,95431
2018-02-09T01:50:55.351Z,95426
2018-02-09T01:53:23.409Z,95430
2018-02-09T01:55:52.357Z,95430
2018-02-09T01:58:21.126Z,95430
2018-02-09T02:00:49.186Z,95412
2018-02-09T02:03:17.303Z,95424
2018-02-09T02:05:45.378Z,95421
2018-02-09T02:08:13.435Z,95417
2018-02-09T02:10:42.657Z,95411
2018-02-09T02:13:10.841Z,95415
2018-02-09T02:15:38.893Z,95408
2018-02-09T02:18:06.954Z,95401
2018-02-09T02:20:35.024Z,95403
2018-02-09T02:23:03.082Z,95413
2018-02-09T02:25:31.914Z,95400
2018-02-09T02:27:59.976Z,95412
2018-02-09T02:30:28.052Z,95409
2018-02-09T02:32:56.157Z,95407
2018-02-09T02:35:24.261Z,95396
2018-02-09T02:37:53.837Z,95402
2018-02-09T02:40:21.930Z,95402
2018-02-09T02:42:49.982Z,95394
2018-02-09T02:45:18.042Z,95395
2018-02-09T02:47:46.153Z,95402
2018-02-09T02:50:14.203Z,95387
2018-02-09T02:52:43.949Z,95386
2018-02-09T02:55:13.123Z,95394
2018-02-09T02:57:41.212Z,95385
2018-02-09T03:00:09.281Z,95399
2018-02-09T03:02:37.341Z,95371
2018-02-09T03:05:05.451Z,95376
2018-02-09T03:07:33.525Z,95373
2018-02-09T03:10:01.582Z,95366
2018-02-09T03:12:29.649Z,95375
2018-02-09T03:14:57.756Z,95364
2018-02-09T03:17:25.822Z,95386
2018-02-09T03:19:53.883Z,95371
2018-02-09T03:22:21.943Z,95368
2018-02-09T03:24:50.065Z,95378
2018-02-09T03:27:18.133Z,95371
2018-02-09T03:29:46.193Z,95375
2018-02-09T03:32:14.617Z,95365
2018-02-09T03:34:44.390Z,95365
2018-02-09T03:37:13.573Z,95370
2018-02-09T03:39:41.629Z,95367
2018-02-09T03:42:11.102Z,95368
2018-02-09T03:44:39.170Z,95364
2018-02-09T03:47:07.229Z,95357
2018-02-09T03:49:35.337Z,95358
2018-02-09T03:52:03.509Z,95354
2018-02-09T03:54:31.588Z,95361
2018-02-09T03:56:59.650Z,95355
2018-02-09T03:59:27.705Z,95363
2018-02-09T04:01:55.809Z,95363
2018-02-09T04:04:23.865Z,95367
2018-02-09T04:06:51.933Z,95356
2018-02-09T04:09:20.041Z,95355
2018-02-09T04:11:48.217Z,95364
2018-02-09T04:14:16.289Z,95362
2018-02-09T04:16:44.349Z,95338
2018-02-09T04:19:12.445Z,95348
2018-02-09T04:21:40.514Z,95338
2018-02-09T04:24:08.569Z,95341
2018-02-09T04:26:36.677Z,95340
2018-02-09T04:29:04.751Z,95342
2018-02-09T04:31:32.845Z,95346
2018-02-09T04:34:00.894Z,95346
2018-02-09T04:36:28.978Z,95341
2018-02-09T04:38:57.129Z,95339
2018-02-09T04:41:25.245Z,95342
2018-02-09T04:43:53.429Z,95348
2018-02-09T04:46:21.470Z,95343
2018-02-09T04:48:49.573Z,95353
2018-02-09T04:51:17.638Z,95343
2018-02-09T04:53:45.705Z,95353
2018-02-09T04:56:15.225Z,95341
2018-02-09T04:58:44.421Z,95343
2018-02-09T05:01:12.505Z,95358
2018-02-09T05:03:40.592Z,95347
2018-02-09T05:06:08.666Z,95340
2018-02-09T05:08:36.746Z,95345
2018-02-09T05:11:04.813Z,95343
2018-02-09T05:13:32.884Z,95346
2018-02-09T05:16:00.937Z,95335
2018-02-09T05:18:29.143Z,95343
2018-02-09T05:20:57.227Z,95343
2018-02-09T05:23:25.277Z,95348
2018-02-09T05:25:53.371Z,95338
2018-02-09T05:28:21.453Z,95348
2018-02-09T05:30:49.523Z,95344
2018-02-09T05:33:17.598Z,95338
2018-02-09T05:35:45.650Z,95329
2018-02-09T05:38:14.837Z,95334
2018-02-09T05:40:42.903Z,95334
2018-02-09T05:43:11.764Z,95330
2018-02-09T05:45:39.809Z,95331
2018-02-09T05:48:07.902Z,95328
2018-02-09T05:50:35.977Z,95329
2018-02-09T05:53:04.046Z,95331
2018-02-09T05:55:32.097Z,95331
2018-02-09T05:58:00.165Z,95337
2018-02-09T06:00:28.282Z,95333
2018-02-09T06:02:56.361Z,95323
2018-02-09T06:05:24.422Z,95311
2018-02-09T06:07:52.501Z,95336
2018-02-09T06:10:20.557Z,95318
2018-02-09T06:12:48.669Z,95327
2018-02-09T06:15:16.726Z,95327
2018-02-09T06:17:45.349Z,95333
2018-02-09T06:20:13.413Z,95327
2018-02-09T06:22:41.536Z,95324
2018-02-09T06:25:10.357Z,95331
2018-02-09T06:27:38.419Z,95333
2018-02-09T06:30:06.529Z,95322
2018-02-09T06:32:34.621Z,95330
2018-02-09T06:35:02.668Z,95335
2018-02-09T06:37:30.726Z,95328
2018-02-09T06:39:58.801Z,95335
2018-02-09T06:42:26.871Z,95329
2018-02-09T06:44:55.001Z,95333
2018-02-09T06:47:23.228Z,95333
2018-02-09T06:49:51.249Z,95318
2018-02-09T06:52:19.333Z,95325
2018-02-09T06:54:47.493Z,95336
2018-02-09T06:57:16.376Z,95325
2018-02-09T06:59:46.321Z,95320
2018-02-09T07:02:15.505Z,95326
2018-02-09T07:04:43.685Z,95323
2018-02-09T07:07:11.750Z,95330
2018-02-09T07:09:39.810Z,95339
2018-02-09T07:12:07.922Z,95338
2018-02-09T07:14:35.985Z,95323
2018-02-09T07:17:04.040Z,95323
2018-02-09T07:19:32.121Z,95327
2018-02-09T07:22:00.182Z,95315
2018-02-09T07:24:29.021Z,95331
2018-02-09T07:26:57.097Z,95319
2018-02-09T07:29:25.175Z,95321
2018-02-09T07:31:53.238Z,95328
2018-02-09T07:34:21.289Z,95327
2018-02-09T07:36:49.362Z,95322
2018-02-09T07:39:17.678Z,95326
2018-02-09T07:41:46.112Z,95321
2018-02-09T07:44:16.049Z,95319
2018-02-09T07:46:44.105Z,95322
2018-02-09T07:49:13.467Z,95327
2018-02-09T07:51:41.537Z,95331
2018-02-09T07:54:09.593Z,95326
2018-02-09T07:56:37.659Z,95327
2018-02-09T07:59:05.716Z,95330
2018-02-09T08:01:34.546Z,95330
2018-02-09T08:04:02.604Z,95320
2018-02-09T08:06:30.709Z,95326
2018-02-09T08:08:58.793Z,95318
2018-02-09T08:11:26.903Z,95317
2018-02-09T08:13:55.718Z,95306
2018-02-09T08:16:23.782Z,95317
2018-02-09T08:18:52.625Z,95312
2018-02-09T08:21:20.705Z,95315
2018-02-09T08:23:48.754Z,95305
2018-02-09T08:26:17.778Z,95322
2018-02-09T08:28:45.838Z,95318
2018-02-09T08:31:13.933Z,95319
2018-02-09T08:33:41.992Z,95315
2018-02-09T08:36:10.073Z,95314
2018-02-09T08:38:38.289Z,95321
2018-02-09T08:41:06.411Z,95311
2018-02-09T08:43:34.552Z,95317
2018-02-09T08:46:02.727Z,95314
2018-02-09T08:48:30.906Z,95310
2018-02-09T08:50:59.777Z,95308
2018-02-09T08:53:27.842Z,95308
2018-02-09T08:55:56.665Z,95304
2018-02-09T08:58:24.721Z,95317
2018-02-09T09:00:52.797Z,95303
2018-02-09T09:03:20.849Z,95309
2018-02-09T09:05:49.253Z,95296
2018-02-09T09:08:18.152Z,95306
2018-02-09T09:10:46.216Z,95311
2018-02-09T09:13:14.297Z,95304
2018-02-09T09:15:43.393Z,95299
2018-02-09T09:18:11.463Z,95294
2018-02-09T09:20:39.565Z,95296
2018-02-09T09:23:07.625Z,95288
2018-02-09T09:25:35.689Z,95293
2018-02-09T09:28:03.779Z,95284
2018-02-09T09:30:32.648Z,95275
2018-02-09T09:33:00.723Z,95281
2018-02-09T09:35:28.773Z,95283
2018-02-09T09:37:57.601Z,95278
2018-02-09T09:40:25.701Z,95276
2018-02-09T09:42:53.760Z,95276
2018-02-09T09:45:21.852Z,95267
2018-02-09T09:47:49.913Z,95278
2018-02-09T09:50:18.262Z,95269
2018-02-09T09:52:48.208Z,95269
2018-02-09T09:55:16.272Z,95268
2018-02-09T09:57:44.333Z,95264
2018-02-09T10:00:13.154Z,95262
2018-02-09T10:02:41.227Z,95253
2018-02-09T10:05:09.330Z,95261
2018-02-09T10:07:37.405Z,95250
2018-02-09T10:10:05.461Z,95257
2018-02-09T10:12:34.382Z,95250
2018-02-09T10:15:02.429Z,95258
2018-02-09T10:17:30.533Z,95244
2018-02-09T10:19:58.585Z,95242
2018-02-09T10:22:26.646Z,95245
2018-02-09T10:24:54.710Z,95234
2018-02-09T10:27:23.658Z,95237
2018-02-09T10:29:51.757Z,95230
2018-02-09T10:32:19.910Z,95227
2018-02-09T10:34:47.966Z,95223
2018-02-09T10:37:16.026Z,95217
2018-02-09T10:39:44.082Z,95205
2018-02-09T10:42:13.072Z,95209
2018-02-09T10:44:41.085Z,95214
2018-02-09T10:47:09.190Z,95207
2018-02-09T10:49:37.268Z,95209
2018-02-09T10:52:05.336Z,95223
2018-02-09T10:54:33.416Z,95208
2018-02-09T10:57:01.493Z,95204
2018-02-09T10:59:29.554Z,95204
2018-02-09T11:01:57.606Z,95204
2018-02-09T11:04:25.663Z,95203
2018-02-09T11:06:54.526Z,95191
2018-02-09T11:09:29.818Z,95195
2018-02-09T11:12:01.749Z,95195
2018-02-09T11:14:30.615Z,95183
2018-02-09T11:16:58.662Z,95181
2018-02-09T11:19:26.727Z,95163
2018-02-09T11:21:54.789Z,95169
2018-02-09T11:24:22.921Z,95169
2018-02-09T11:26:51.061Z,95166
2018-02-09T11:29:19.105Z,95164
2018-02-09T11:31:49.066Z,95163
2018-02-09T11:34:17.339Z,95165
2018-02-09T11:36:45.502Z,95160
2018-02-09T11:39:13.566Z,95166
2018-02-09T11:41:42.386Z,95162
2018-02-09T11:44:10.466Z,95150
2018-02-09T11:46:38.582Z,95154
2018-02-09T11:49:06.746Z,95158
2018-02-09T11:51:34.822Z,95146
2018-02-09T11:54:02.886Z,95146
2018-02-09T11:56:31.005Z,95140
2018-02-09T11:58:59.824Z,95131
2018-02-09T12:01:27.940Z,95131
2018-02-09T12:03:55.997Z,95132
2018-02-09T12:06:24.057Z,95132
2018-02-09T12:08:52.498Z,95130
2018-02-09T12:11:20.562Z,95119
2018-02-09T12:13:48.845Z,95114
2018-02-09T12:16:16.901Z,95116
2018-02-09T12:18:44.953Z,95118
2018-02-09T12:21:13.043Z,95116
2018-02-09T12:23:41.449Z,95122
2018-02-09T12:26:09.565Z,95113
2018-02-09T12:28:38.421Z,95111
2018-02-09T12:31:06.493Z,95107
2018-02-09T12:33:34.644Z,95107
2018-02-09T12:36:02.741Z,95099
2018-02-09T12:38:30.797Z,95114
2018-02-09T12:40:58.896Z,95098
2018-02-09T12:43:26.958Z,95091
2018-02-09T12:45:55.026Z,95102
2018-02-09T12:48:23.135Z,95099
2018-02-09T12:50:51.217Z,95101
2018-02-09T12:53:19.344Z,95083
2018-02-09T12:55:49.297Z,95088
2018-02-09T12:58:17.361Z,95094
2018-02-09T13:00:45.427Z,95084
2018-02-09T13:03:13.481Z,95070
2018-02-09T13:05:42.325Z,95080
2018-02-09T13:08:10.470Z,95076
2018-02-09T13:10:38.594Z,95064
2018-02-09T13:13:12.810Z,95073
2018-02-09T13:15:41.156Z,95068
2018-02-09T13:18:09.493Z,95061
2018-02-09T13:20:37.666Z,95066
2018-02-09T13:23:24.380Z,95065
2018-02-09T13:25:52.454Z,95059
2018-02-09T13:28:38.609Z,95060
2018-02-09T13:31:06.665Z,95062
2018-02-09T13:33:34.730Z,95076
2018-02-09T13:36:02.837Z,95061
2018-02-09T13:38:30.913Z,95061
2018-02-09T13:40:58.977Z,95058
2018-02-09T13:43:27.053Z,95063
2018-02-09T13:45:55.473Z,95061
2018-02-09T13:48:23.704Z,95062
2018-02-09T13:50:51.789Z,95071
2018-02-09T13:53:20.689Z,95055
2018-02-09T13:55:49.190Z,95054
2018-02-09T13:58:17.781Z,95066
2018-02-09T14:00:45.874Z,95058
2018-02-09T14:03:14.845Z,95053
2018-02-09T14:05:42.896Z,95062
2018-02-09T14:08:11.011Z,95062
2018-02-09T14:10:39.073Z,95062
2018-02-09T14:13:07.162Z,95050
2018-02-09T14:15:35.312Z,95053
2018-02-09T14:18:03.406Z,95056
2018-02-09T14:20:31.763Z,95054
2018-02-09T14:22:59.915Z,95052
2018-02-09T14:25:28.733Z,95051
2018-02-09T14:27:56.983Z,95047
2018-02-09T14:30:25.125Z,95044
2018-02-09T14:32:53.188Z,95048
2018-02-09T14:35:21.273Z,95040
2018-02-09T14:37:49.369Z,95045
2018-02-09T14:40:17.425Z,95047
2018-02-09T14:42:45.486Z,95046
2018-02-09T14:45:13.769Z,95052
2018-02-09T14:47:41.957Z,95060
2018-02-09T14:50:10.059Z,95059
2018-02-09T14:52:38.213Z,95053
2018-02-09T14:55:06.390Z,95046
2018-02-09T14:57:34.580Z,95044
2018-02-09T15:00:02.810Z,95047
2018-02-09T15:02:31.629Z,95062
2018-02-09T15:04:59.721Z,95043
2018-02-09T15:07:27.797Z,95058
2018-02-09T15:09:55.943Z,95051
2018-02-09T15:12:24.081Z,95050
2018-02-09T15:14:52.182Z,95055
2018-02-09T15:17:21.019Z,95044
2018-02-09T15:19:49.745Z,95048
2018-02-09T15:22:17.793Z,95043
2018-02-09T15:24:45.854Z,95048
2018-02-09T15:27:13.925Z,95051
2018-02-09T15:29:42.021Z,95037
2018-02-09T15:32:10.105Z,95042
2018-02-09T15:34:38.229Z,95063
2018-02-09T15:37:07.073Z,95054
2018-02-09T15:39:35.150Z,95055
2018-02-09T15:42:03.331Z,95059
2018-02-09T15:44:31.412Z,95049
2018-02-09T15:46:59.652Z,95052
2018-02-09T15:49:27.698Z,95058
2018-02-09T15:51:56.549Z,95063
2018-02-09T15:54:24.669Z,95059
2018-02-09T15:56:52.730Z,95066
2018-02-09T15:59:20.890Z,95051
2018-02-09T16:01:50.900Z,95059
2018-02-09T16:04:20.073Z,95058
2018-02-09T16:06:48.140Z,95061
2018-02-09T16:09:16.201Z,95059
2018-02-09T16:11:45.049Z,95047
2018-02-09T16:14:13.121Z,95056
2018-02-09T16:16:41.193Z,95051
2018-02-09T16:19:09.277Z,95062
2018-02-09T16:21:37.353Z,95048
2018-02-09T16:24:05.542Z,95044
2018-02-09T16:26:33.594Z,95039
2018-02-09T16:29:01.657Z,95044
2018-02-09T16:31:29.734Z,95056
2018-02-09T16:33:57.798Z,95046
2018-02-09T16:36:26.605Z,95052
2018-02-09T16:38:54.667Z,95054
2018-02-09T16:41:22.789Z,95055
2018-02-09T16:43:50.853Z,95059
2018-02-09T16:46:20.469Z,95046
2018-02-09T16:48:48.535Z,95043
2018-02-09T16:51:16.610Z,95059
2018-02-09T16:53:44.666Z,95043
2018-02-09T16:56:12.717Z,95048
2018-02-09T16:58:41.570Z,95047
2018-02-09T17:01:09.654Z,95063
2018-02-09T17:03:37.713Z,95046
2018-02-09T17:06:05.766Z,95065
2018-02-09T17:08:33.829Z,95069
2018-02-09T17:11:01.991Z,95049
2018-02-09T17:13:30.035Z,95061
2018-02-09T17:15:58.090Z,95076
2018-02-09T17:18:26.185Z,95070
2018-02-09T17:20:54.264Z,95074
2018-02-09T17:23:22.325Z,95076
2018-02-09T17:25:50.817Z,95081
2018-02-09T17:28:18.886Z,95079
2018-02-09T17:30:46.970Z,95078
2018-02-09T17:33:15.037Z,95079
2018-02-09T17:35:43.100Z,95079
2018-02-09T17:38:11.163Z,95086
2018-02-09T17:40:39.244Z,95081
2018-02-09T17:43:07.350Z,95064
2018-02-09T17:45:35.467Z,95074
2018-02-09T17:48:03.533Z,95070
2018-02-09T17:50:31.594Z,95087
2018-02-09T17:52:59.657Z,95080
2018-02-09T17:55:27.757Z,95073
2018-02-09T17:57:55.802Z,95071
2018-02-09T18:00:23.857Z,95066
2018-02-09T18:02:51.909Z,95064
2018-02-09T18:05:21.871Z,95066
2018-02-09T18:07:52.086Z,95072
2018-02-09T18:10:21.294Z,95068
2018-02-09T18:12:49.341Z,95077
2018-02-09T18:15:17.400Z,95076
2018-02-09T18:17:46.262Z,95076
2018-02-09T18:20:14.450Z,95084
2018-02-09T18:22:42.505Z,95081
2018-02-09T18:25:10.588Z,95083
2018-02-09T18:27:38.958Z,95084
2018-02-09T18:30:07.042Z,95076
2018-02-09T18:32:35.109Z,95083
2018-02-09T18:35:03.166Z,95075
2018-02-09T18:37:31.226Z,95075
2018-02-09T18:40:00.139Z,95087
2018-02-09T18:42:28.241Z,95104
2018-02-09T18:44:56.301Z,95097
2018-02-09T18:47:24.387Z,95089
2018-02-09T18:49:52.466Z,95089
2018-02-09T18:52:22.299Z,95083
2018-02-09T18:54:52.315Z,95085
2018-02-09T18:57:21.513Z,95101
2018-02-09T18:59:49.593Z,95107
2018-02-09T19:02:17.678Z,95109
2018-02-09T19:04:45.749Z,95102
2018-02-09T19:07:13.924Z,95113
2018-02-09T19:09:42.007Z,95110
2018-02-09T19:12:10.065Z,95107
2018-02-09T19:14:38.257Z,95100
2018-02-09T19:17:06.429Z,95100
2018-02-09T19:19:34.485Z,95106
2018-02-09T19:22:02.557Z,95099
2018-02-09T19:24:30.608Z,95112
2018-02-09T19:26:59.452Z,95102
2018-02-09T19:29:27.552Z,95108
2018-02-09T19:31:55.593Z,95108
2018-02-09T19:34:23.650Z,95105
2018-02-09T19:36:51.882Z,95109
2018-02-09T19:39:19.939Z,95091
2018-02-09T19:41:47.995Z,95103
2018-02-09T19:44:16.052Z,95095
2018-02-09T19:46:44.118Z,95101
2018-02-09T19:49:12.946Z,95104
2018-02-09T19:51:41.035Z,95099
2018-02-09T19:54:09.115Z,95117
2018-02-09T19:59:39.645Z,95123
2018-02-09T20:02:07.753Z,95114
2018-02-09T20:04:35.754Z,95113
2018-02-09T20:07:03.814Z,95123
2018-02-09T20:09:31.861Z,95117
2018-02-09T20:11:59.932Z,95123
2018-02-09T20:14:28.085Z,95115
2018-02-09T20:16:56.167Z,95121
2018-02-09T20:19:24.229Z,95127
2018-02-09T20:21:52.286Z,95121
2018-02-09T20:24:20.357Z,95123
2018-02-09T20:26:48.573Z,95120
2018-02-09T20:29:16.621Z,95129
2018-02-09T20:31:44.721Z,95124
2018-02-09T20:34:12.787Z,95128
2018-02-09T20:36:40.850Z,95124
2018-02-09T20:39:08.911Z,95118
2018-02-09T20:41:36.969Z,95130
2018-02-09T20:44:05.790Z,95126
2018-02-09T20:46:33.850Z,95125
2018-02-09T20:49:01.911Z,95127
2018-02-09T20:51:30.767Z,95141
2018-02-09T20:53:58.941Z,95139
2018-02-09T20:56:26.991Z,95140
2018-02-09T20:58:55.088Z,95127
2018-02-09T21:01:23.207Z,95130
2018-02-09T21:03:53.169Z,95131
2018-02-09T21:06:22.355Z,95133
2018-02-09T21:08:50.465Z,95138
2018-02-09T21:11:18.561Z,95146
2018-02-09T21:13:46.631Z,95150
2018-02-09T21:16:14.690Z,95144
2018-02-09T21:18:42.784Z,95136
2018-02-09T21:21:10.849Z,95129
2018-02-09T21:23:38.910Z,95124
2018-02-09T21:26:06.992Z,95127
2018-02-09T21:28:35.043Z,95127
2018-02-09T21:31:03.169Z,95126
2018-02-09T21:33:31.233Z,95128
2018-02-09T21:35:59.293Z,95141
2018-02-09T21:38:27.898Z,95142
2018-02-09T21:40:56.082Z,95146
2018-02-09T21:43:24.169Z,95139
2018-02-09T21:45:53.629Z,95142
2018-02-09T21:48:22.816Z,95148
2018-02-09T21:50:52.763Z,95146
2018-02-09T21:53:20.835Z,95140
2018-02-09T21:55:48.901Z,95140
2018-02-09T21:58:17.833Z,95134
2018-02-09T22:00:45.909Z,95152
2018-02-09T22:03:13.981Z,95142
2018-02-09T22:05:43.186Z,95146
2018-02-09T22:08:11.639Z,95136
2018-02-09T22:10:39.970Z,95140
2018-02-09T22:13:08.027Z,95147
2018-02-09T22:15:36.094Z,95131
2018-02-09T22:18:04.166Z,95138
2018-02-09T22:20:32.289Z,95139
2018-02-09T22:23:00.428Z,95147
2018-02-09T22:25:28.539Z,95152
2018-02-09T22:27:56.713Z,95153
2018-02-09T22:30:24.977Z,95149
2018-02-09T22:32:53.373Z,95145
2018-02-09T22:35:21.558Z,95139
2018-02-09T22:37:49.805Z,95142
2018-02-09T22:40:17.934Z,95142
2018-02-09T22:42:46.785Z,95143
2018-02-09T22:45:14.890Z,95141
2018-02-09T22:47:42.965Z,95137
2018-02-09T22:50:11.035Z,95143
2018-02-09T22:52:39.102Z,95132
2018-02-09T22:55:07.233Z,95151
2018-02-09T22:57:35.371Z,95155
2018-02-09T23:00:03.438Z,95149
2018-02-09T23:02:33.025Z,95157
2018-02-09T23:05:01.176Z,95162
2018-02-09T23:07:29.297Z,95164
2018-02-09T23:09:57.357Z,95166
2018-02-09T23:12:26.157Z,95161
2018-02-09T23:14:54.224Z,95157
2018-02-09T23:17:22.301Z,95159
2018-02-09T23:19:50.373Z,95149
2018-02-09T23:22:18.461Z,95162
2018-02-09T23:24:46.524Z,95161
2018-02-09T23:27:14.581Z,95167
2018-02-09T23:29:42.693Z,95160
2018-02-09T23:32:10.749Z,95156
2018-02-09T23:34:39.168Z,95158
2018-02-09T23:37:07.216Z,95157
2018-02-09T23:39:35.308Z,95143
2018-02-09T23:42:03.385Z,95145
2018-02-09T23:44:31.447Z,95149
2018-02-09T23:46:59.529Z,95153
2018-02-09T23:49:27.600Z,95163
2018-02-09T23:51:55.669Z,95151
2018-02-09T23:54:23.989Z,95150
2018-02-09T23:56:52.044Z,95148
2018-02-09T23:59:20.110Z,95146
